sensor_id;sensor_type;location;lat;lon;timestamp;pressure;altitude;pressure_sealevel;temperature;humidity
58245;BME280;44550;43.864;25.986;2024-01-07T00:03:57;99841.28;;;8.94;100.00
58245;BME280;44550;43.864;25.986;2024-01-07T00:08:05;99841.22;;;9.22;100.00
58245;BME280;44550;43.864;25.986;2024-01-07T00:12:08;99846.41;;;9.34;100.00
58245;BME280;44550;43.864;25.986;2024-01-07T00:16:09;99834.28;;;9.08;100.00
58245;BME280;44550;43.864;25.986;2024-01-07T00:20:13;99849.03;;;9.20;100.00
58245;BME280;44550;43.864;25.986;2024-01-07T00:24:18;99845.53;;;9.41;100.00
58245;BME280;44550;43.864;25.986;2024-01-07T00:28:20;99842.03;;;9.42;100.00
58245;BME280;44550;43.864;25.986;2024-01-07T00:32:33;99766.53;;;8.67;100.00
58245;BME280;44550;43.864;25.986;2024-01-07T00:37:14;99820.41;;;8.39;100.00
58245;BME280;44550;43.864;25.986;2024-01-07T00:41:32;99818.66;;;8.73;100.00
58245;BME280;44550;43.864;25.986;2024-01-07T00:45:35;99805.63;;;8.94;100.00
58245;BME280;44550;43.864;25.986;2024-01-07T00:49:41;99807.38;;;8.82;100.00
58245;BME280;44550;43.864;25.986;2024-01-07T00:53:59;99794.34;;;8.66;100.00
58245;BME280;44550;43.864;25.986;2024-01-07T00:58:10;99783.03;;;8.86;100.00
58245;BME280;44550;43.864;25.986;2024-01-07T01:02:33;99799.53;;;9.00;100.00
58245;BME280;44550;43.864;25.986;2024-01-07T01:06:41;99790.00;;;8.85;100.00
58245;BME280;44550;43.864;25.986;2024-01-07T01:11:00;99795.22;;;8.81;100.00
58245;BME280;44550;43.864;25.986;2024-01-07T01:15:17;99787.41;;;8.73;100.00
58245;BME280;44550;43.864;25.986;2024-01-07T01:19:31;99766.56;;;8.65;100.00
58245;BME280;44550;43.864;25.986;2024-01-07T01:23:38;99756.97;;;8.77;100.00
58245;BME280;44550;43.864;25.986;2024-01-07T01:28:19;99742.16;;;9.03;100.00
58245;BME280;44550;43.864;25.986;2024-01-07T01:32:43;99741.16;;;9.44;100.00
58245;BME280;44550;43.864;25.986;2024-01-07T01:37:36;99734.09;;;9.58;100.00
58245;BME280;44550;43.864;25.986;2024-01-07T01:42:02;99709.56;;;9.85;100.00
58245;BME280;44550;43.864;25.986;2024-01-07T01:46:30;99720.75;;;11.01;100.00
58245;BME280;44550;43.864;25.986;2024-01-07T01:50:47;99712.38;;;11.44;100.00
58245;BME280;44550;43.864;25.986;2024-01-07T01:54:53;99724.28;;;11.65;100.00
58245;BME280;44550;43.864;25.986;2024-01-07T01:58:57;99714.69;;;11.67;100.00
58245;BME280;44550;43.864;25.986;2024-01-07T02:03:07;99726.75;;;11.77;100.00
58245;BME280;44550;43.864;25.986;2024-01-07T02:07:21;99717.00;;;11.90;100.00
58245;BME280;44550;43.864;25.986;2024-01-07T02:11:26;99690.44;;;12.13;100.00
58245;BME280;44550;43.864;25.986;2024-01-07T02:15:37;99712.84;;;12.31;100.00
58245;BME280;44550;43.864;25.986;2024-01-07T02:19:41;99714.84;;;12.17;100.00
58245;BME280;44550;43.864;25.986;2024-01-07T02:23:46;99708.41;;;11.77;100.00
58245;BME280;44550;43.864;25.986;2024-01-07T02:28:01;99701.66;;;11.61;100.00
58245;BME280;44550;43.864;25.986;2024-01-07T02:32:10;99679.94;;;11.56;100.00
58245;BME280;44550;43.864;25.986;2024-01-07T02:36:15;99692.78;;;11.71;100.00
58245;BME280;44550;43.864;25.986;2024-01-07T02:40:23;99685.69;;;11.78;100.00
58245;BME280;44550;43.864;25.986;2024-01-07T02:44:30;99683.03;;;11.83;100.00
58245;BME280;44550;43.864;25.986;2024-01-07T02:48:41;99686.38;;;11.94;100.00
58245;BME280;44550;43.864;25.986;2024-01-07T02:52:53;99648.84;;;11.92;100.00
58245;BME280;44550;43.864;25.986;2024-01-07T02:57:04;99662.41;;;12.17;100.00
58245;BME280;44550;43.864;25.986;2024-01-07T03:01:13;99665.69;;;12.30;100.00
58245;BME280;44550;43.864;25.986;2024-01-07T03:05:18;99652.59;;;12.30;100.00
58245;BME280;44550;43.864;25.986;2024-01-07T03:09:28;99642.06;;;12.33;100.00
58245;BME280;44550;43.864;25.986;2024-01-07T03:13:30;99631.34;;;12.45;100.00
58245;BME280;44550;43.864;25.986;2024-01-07T03:17:42;99619.84;;;12.52;100.00
58245;BME280;44550;43.864;25.986;2024-01-07T03:21:47;99618.69;;;12.67;100.00
58245;BME280;44550;43.864;25.986;2024-01-07T03:25:53;99613.53;;;12.62;100.00
58245;BME280;44550;43.864;25.986;2024-01-07T03:29:57;99622.09;;;12.72;100.00
58245;BME280;44550;43.864;25.986;2024-01-07T03:34:01;99615.13;;;12.69;100.00
58245;BME280;44550;43.864;25.986;2024-01-07T03:38:04;99603.81;;;12.67;100.00
58245;BME280;44550;43.864;25.986;2024-01-07T03:42:15;99597.00;;;12.59;100.00
58245;BME280;44550;43.864;25.986;2024-01-07T03:46:23;99605.84;;;12.53;100.00
58245;BME280;44550;43.864;25.986;2024-01-07T03:50:28;99594.66;;;12.43;100.00
58245;BME280;44550;43.864;25.986;2024-01-07T03:54:35;99594.44;;;12.56;100.00
58245;BME280;44550;43.864;25.986;2024-01-07T03:58:45;99583.91;;;12.57;100.00
58245;BME280;44550;43.864;25.986;2024-01-07T04:02:58;99585.44;;;12.67;100.00
58245;BME280;44550;43.864;25.986;2024-01-07T04:07:17;99567.75;;;12.34;100.00
58245;BME280;44550;43.864;25.986;2024-01-07T04:11:19;99574.88;;;12.27;100.00
58245;BME280;44550;43.864;25.986;2024-01-07T04:15:34;99572.69;;;12.04;100.00
58245;BME280;44550;43.864;25.986;2024-01-07T04:19:56;99560.44;;;12.05;100.00
58245;BME280;44550;43.864;25.986;2024-01-07T04:24:14;99550.06;;;12.00;100.00
58245;BME280;44550;43.864;25.986;2024-01-07T04:28:26;99526.47;;;11.98;100.00
58245;BME280;44550;43.864;25.986;2024-01-07T04:32:55;99540.28;;;12.08;100.00
58245;BME280;44550;43.864;25.986;2024-01-07T04:37:21;99519.25;;;12.11;100.00
58245;BME280;44550;43.864;25.986;2024-01-07T04:41:34;99522.78;;;12.10;100.00
58245;BME280;44550;43.864;25.986;2024-01-07T04:45:43;99529.41;;;12.30;100.00
58245;BME280;44550;43.864;25.986;2024-01-07T04:50:10;99526.72;;;12.33;100.00
58245;BME280;44550;43.864;25.986;2024-01-07T04:54:34;99522.22;;;12.38;100.00
58245;BME280;44550;43.864;25.986;2024-01-07T04:58:44;99492.72;;;12.28;100.00
58245;BME280;44550;43.864;25.986;2024-01-07T05:02:50;99509.81;;;12.48;100.00
58245;BME280;44550;43.864;25.986;2024-01-07T05:07:02;99493.13;;;12.52;100.00
58245;BME280;44550;43.864;25.986;2024-01-07T05:11:14;99474.56;;;12.61;100.00
58245;BME280;44550;43.864;25.986;2024-01-07T05:15:24;99455.53;;;12.51;100.00
58245;BME280;44550;43.864;25.986;2024-01-07T05:19:29;99449.28;;;12.58;100.00
58245;BME280;44550;43.864;25.986;2024-01-07T05:23:33;99449.25;;;12.60;100.00
58245;BME280;44550;43.864;25.986;2024-01-07T05:27:35;99418.88;;;12.50;100.00
58245;BME280;44550;43.864;25.986;2024-01-07T05:31:39;99402.22;;;12.52;100.00
58245;BME280;44550;43.864;25.986;2024-01-07T05:36:00;99421.31;;;12.59;100.00
58245;BME280;44550;43.864;25.986;2024-01-07T05:40:06;99424.75;;;12.61;100.00
58245;BME280;44550;43.864;25.986;2024-01-07T05:44:12;99416.94;;;12.58;100.00
58245;BME280;44550;43.864;25.986;2024-01-07T05:48:40;99407.34;;;12.57;100.00
58245;BME280;44550;43.864;25.986;2024-01-07T05:53:14;99420.34;;;12.63;100.00
58245;BME280;44550;43.864;25.986;2024-01-07T06:02:10;99413.38;;;12.62;100.00
58245;BME280;44550;43.864;25.986;2024-01-07T06:06:29;99380.56;;;12.44;100.00
58245;BME280;44550;43.864;25.986;2024-01-07T06:10:38;99321.16;;;12.04;100.00
58245;BME280;44550;43.864;25.986;2024-01-07T06:14:42;99389.44;;;12.37;100.00
58245;BME280;44550;43.864;25.986;2024-01-07T06:19:09;99372.97;;;12.32;100.00
58245;BME280;44550;43.864;25.986;2024-01-07T06:23:24;99367.75;;;12.30;100.00
58245;BME280;44550;43.864;25.986;2024-01-07T06:28:10;99339.00;;;12.27;100.00
58245;BME280;44550;43.864;25.986;2024-01-07T06:32:44;99346.91;;;12.24;100.00
58245;BME280;44550;43.864;25.986;2024-01-07T06:37:22;99347.16;;;12.13;100.00
58245;BME280;44550;43.864;25.986;2024-01-07T06:46:18;99267.28;;;11.50;100.00
58245;BME280;44550;43.864;25.986;2024-01-07T06:50:19;99326.09;;;11.76;100.00
58245;BME280;44550;43.864;25.986;2024-01-07T06:54:23;99328.78;;;11.73;100.00
58245;BME280;44550;43.864;25.986;2024-01-07T06:58:32;99322.03;;;11.61;100.00
58245;BME280;44550;43.864;25.986;2024-01-07T07:02:34;99326.47;;;11.58;100.00
58245;BME280;44550;43.864;25.986;2024-01-07T07:06:36;99265.25;;;11.21;100.00
58245;BME280;44550;43.864;25.986;2024-01-07T07:10:36;99296.25;;;11.41;100.00
58245;BME280;44550;43.864;25.986;2024-01-07T07:14:42;99299.53;;;11.52;100.00
58245;BME280;44550;43.864;25.986;2024-01-07T07:18:44;99276.16;;;11.42;100.00
58245;BME280;44550;43.864;25.986;2024-01-07T07:22:52;99287.25;;;11.55;100.00
58245;BME280;44550;43.864;25.986;2024-01-07T07:26:53;99296.53;;;11.71;100.00
58245;BME280;44550;43.864;25.986;2024-01-07T07:30:57;99284.94;;;11.81;100.00
58245;BME280;44550;43.864;25.986;2024-01-07T07:34:59;99257.19;;;11.74;100.00
58245;BME280;44550;43.864;25.986;2024-01-07T07:39:03;99274.47;;;11.81;100.00
58245;BME280;44550;43.864;25.986;2024-01-07T07:43:12;99272.47;;;11.95;100.00
58245;BME280;44550;43.864;25.986;2024-01-07T07:47:18;99280.22;;;12.00;100.00
58245;BME280;44550;43.864;25.986;2024-01-07T07:51:24;99278.69;;;11.90;100.00
58245;BME280;44550;43.864;25.986;2024-01-07T07:55:29;99303.97;;;11.91;100.00
58245;BME280;44550;43.864;25.986;2024-01-07T07:59:34;99306.47;;;11.97;100.00
58245;BME280;44550;43.864;25.986;2024-01-07T08:03:44;99309.88;;;12.01;100.00
58245;BME280;44550;43.864;25.986;2024-01-07T08:07:56;99310.69;;;12.04;100.00
58245;BME280;44550;43.864;25.986;2024-01-07T08:12:01;99285.59;;;11.94;100.00
58245;BME280;44550;43.864;25.986;2024-01-07T08:16:13;99279.97;;;12.11;100.00
58245;BME280;44550;43.864;25.986;2024-01-07T08:20:43;99301.38;;;12.30;100.00
58245;BME280;44550;43.864;25.986;2024-01-07T08:25:37;99269.94;;;12.30;100.00
58245;BME280;44550;43.864;25.986;2024-01-07T08:35:50;99303.19;;;12.63;100.00
58245;BME280;44550;43.864;25.986;2024-01-07T08:40:05;99304.81;;;12.67;100.00
58245;BME280;44550;43.864;25.986;2024-01-07T08:44:13;99291.69;;;12.69;100.00
58245;BME280;44550;43.864;25.986;2024-01-07T08:48:25;99287.03;;;12.80;100.00
58245;BME280;44550;43.864;25.986;2024-01-07T08:52:34;99290.03;;;12.99;100.00
58245;BME280;44550;43.864;25.986;2024-01-07T08:56:46;99281.72;;;13.16;100.00
58245;BME280;44550;43.864;25.986;2024-01-07T09:00:51;99285.03;;;13.23;100.00
58245;BME280;44550;43.864;25.986;2024-01-07T09:04:55;99277.66;;;13.37;100.00
58245;BME280;44550;43.864;25.986;2024-01-07T09:09:10;99276.28;;;13.55;100.00
58245;BME280;44550;43.864;25.986;2024-01-07T09:13:16;99261.06;;;13.36;100.00
58245;BME280;44550;43.864;25.986;2024-01-07T09:17:21;99247.66;;;13.46;100.00
58245;BME280;44550;43.864;25.986;2024-01-07T09:21:26;99275.63;;;13.47;100.00
58245;BME280;44550;43.864;25.986;2024-01-07T09:25:51;99272.91;;;13.51;100.00
58245;BME280;44550;43.864;25.986;2024-01-07T09:29:59;99205.66;;;13.14;100.00
58245;BME280;44550;43.864;25.986;2024-01-07T09:34:05;99246.00;;;13.43;100.00
58245;BME280;44550;43.864;25.986;2024-01-07T09:38:29;99241.69;;;13.40;100.00
58245;BME280;44550;43.864;25.986;2024-01-07T09:42:57;99261.22;;;13.61;100.00
58245;BME280;44550;43.864;25.986;2024-01-07T09:47:29;99255.47;;;13.78;100.00
58245;BME280;44550;43.864;25.986;2024-01-07T09:51:37;99214.88;;;13.59;100.00
58245;BME280;44550;43.864;25.986;2024-01-07T09:55:47;99258.41;;;13.97;100.00
58245;BME280;44550;43.864;25.986;2024-01-07T10:00:11;99263.28;;;13.80;100.00
58245;BME280;44550;43.864;25.986;2024-01-07T10:04:39;99275.06;;;13.96;100.00
58245;BME280;44550;43.864;25.986;2024-01-07T10:09:41;99269.13;;;13.90;100.00
58245;BME280;44550;43.864;25.986;2024-01-07T10:14:08;99317.53;;;13.51;100.00
58245;BME280;44550;43.864;25.986;2024-01-07T10:24:18;99341.88;;;11.73;100.00
58245;BME280;44550;43.864;25.986;2024-01-07T10:28:52;99343.97;;;11.56;100.00
58245;BME280;44550;43.864;25.986;2024-01-07T10:33:31;99341.78;;;11.33;100.00
58245;BME280;44550;43.864;25.986;2024-01-07T10:38:21;99336.50;;;11.36;100.00
58245;BME280;44550;43.864;25.986;2024-01-07T10:43:32;99305.22;;;11.28;100.00
58245;BME280;44550;43.864;25.986;2024-01-07T10:48:26;99315.31;;;11.49;100.00
58245;BME280;44550;43.864;25.986;2024-01-07T10:58:24;99315.53;;;11.81;100.00
58245;BME280;44550;43.864;25.986;2024-01-07T11:08:33;99304.03;;;11.89;100.00
58245;BME280;44550;43.864;25.986;2024-01-07T11:17:56;99302.22;;;12.32;100.00
58245;BME280;44550;43.864;25.986;2024-01-07T11:22:30;99247.63;;;12.12;100.00
58245;BME280;44550;43.864;25.986;2024-01-07T11:26:44;99285.31;;;12.43;100.00
58245;BME280;44550;43.864;25.986;2024-01-07T11:32:16;99297.72;;;12.37;100.00
58245;BME280;44550;43.864;25.986;2024-01-07T11:37:03;99294.94;;;12.43;100.00
58245;BME280;44550;43.864;25.986;2024-01-07T11:41:30;99277.09;;;12.21;100.00
58245;BME280;44550;43.864;25.986;2024-01-07T11:45:37;99297.97;;;12.25;100.00
58245;BME280;44550;43.864;25.986;2024-01-07T11:49:57;99300.38;;;12.35;100.00
58245;BME280;44550;43.864;25.986;2024-01-07T11:54:08;99302.81;;;12.41;100.00
58245;BME280;44550;43.864;25.986;2024-01-07T11:58:17;99303.72;;;12.42;100.00
58245;BME280;44550;43.864;25.986;2024-01-07T12:02:39;99289.91;;;12.34;100.00
58245;BME280;44550;43.864;25.986;2024-01-07T12:06:51;99280.34;;;12.31;100.00
58245;BME280;44550;43.864;25.986;2024-01-07T12:11:01;99299.56;;;12.67;100.00
58245;BME280;44550;43.864;25.986;2024-01-07T12:15:17;99279.38;;;12.73;100.00
58245;BME280;44550;43.864;25.986;2024-01-07T12:19:26;99302.06;;;13.08;100.00
58245;BME280;44550;43.864;25.986;2024-01-07T12:23:53;99306.44;;;13.42;100.00
58245;BME280;44550;43.864;25.986;2024-01-07T12:28:07;99298.97;;;13.57;100.00
58245;BME280;44550;43.864;25.986;2024-01-07T12:32:09;99308.50;;;13.61;100.00
58245;BME280;44550;43.864;25.986;2024-01-07T12:36:14;99286.22;;;13.44;100.00
58245;BME280;44550;43.864;25.986;2024-01-07T12:40:19;99301.13;;;13.74;100.00
58245;BME280;44550;43.864;25.986;2024-01-07T12:44:35;99311.63;;;13.74;100.00
58245;BME280;44550;43.864;25.986;2024-01-07T12:48:37;99292.34;;;13.75;100.00
58245;BME280;44550;43.864;25.986;2024-01-07T12:52:43;99320.09;;;13.84;100.00
58245;BME280;44550;43.864;25.986;2024-01-07T12:56:48;99326.19;;;13.55;100.00
58245;BME280;44550;43.864;25.986;2024-01-07T13:00:57;99322.09;;;13.45;100.00
58245;BME280;44550;43.864;25.986;2024-01-07T13:05:05;99326.28;;;13.52;100.00
58245;BME280;44550;43.864;25.986;2024-01-07T13:09:20;99321.75;;;13.57;100.00
58245;BME280;44550;43.864;25.986;2024-01-07T13:13:23;99325.31;;;13.85;100.00
58245;BME280;44550;43.864;25.986;2024-01-07T13:17:32;99314.78;;;13.56;100.00
58245;BME280;44550;43.864;25.986;2024-01-07T13:21:42;99327.81;;;13.28;100.00
58245;BME280;44550;43.864;25.986;2024-01-07T13:26:15;99335.28;;;13.07;100.00
58245;BME280;44550;43.864;25.986;2024-01-07T13:30:23;99336.94;;;12.77;100.00
58245;BME280;44550;43.864;25.986;2024-01-07T13:34:36;99327.13;;;12.85;100.00
58245;BME280;44550;43.864;25.986;2024-01-07T13:38:40;99344.16;;;12.67;100.00
58245;BME280;44550;43.864;25.986;2024-01-07T13:43:06;99330.31;;;12.25;100.00
58245;BME280;44550;43.864;25.986;2024-01-07T13:47:37;99331.41;;;12.15;100.00
58245;BME280;44550;43.864;25.986;2024-01-07T13:51:47;99348.56;;;12.30;100.00
58245;BME280;44550;43.864;25.986;2024-01-07T13:56:10;99334.53;;;12.32;100.00
58245;BME280;44550;43.864;25.986;2024-01-07T14:00:34;99333.81;;;12.24;100.00
58245;BME280;44550;43.864;25.986;2024-01-07T14:04:41;99304.03;;;11.89;100.00
58245;BME280;44550;43.864;25.986;2024-01-07T14:08:52;99342.97;;;12.05;100.00
58245;BME280;44550;43.864;25.986;2024-01-07T14:13:18;99341.81;;;12.18;100.00
58245;BME280;44550;43.864;25.986;2024-01-07T14:17:32;99348.69;;;12.23;100.00
58245;BME280;44550;43.864;25.986;2024-01-07T14:21:43;99353.31;;;11.69;100.00
58245;BME280;44550;43.864;25.986;2024-01-07T14:25:48;99337.63;;;11.21;100.00
58245;BME280;44550;43.864;25.986;2024-01-07T14:29:56;99368.47;;;11.03;100.00
58245;BME280;44550;43.864;25.986;2024-01-07T14:34:01;99345.50;;;10.70;100.00
58245;BME280;44550;43.864;25.986;2024-01-07T14:38:04;99376.88;;;10.70;100.00
58245;BME280;44550;43.864;25.986;2024-01-07T14:42:29;99350.44;;;10.29;100.00
58245;BME280;44550;43.864;25.986;2024-01-07T14:46:33;99388.69;;;10.35;100.00
58245;BME280;44550;43.864;25.986;2024-01-07T14:50:45;99392.13;;;10.40;100.00
58245;BME280;44550;43.864;25.986;2024-01-07T14:54:50;99317.75;;;10.01;100.00
58245;BME280;44550;43.864;25.986;2024-01-07T14:58:51;99360.81;;;10.35;100.00
58245;BME280;44550;43.864;25.986;2024-01-07T15:02:53;99393.84;;;10.40;100.00
58245;BME280;44550;43.864;25.986;2024-01-07T15:07:01;99397.47;;;10.31;100.00
58245;BME280;44550;43.864;25.986;2024-01-07T15:11:13;99394.19;;;10.14;100.00
58245;BME280;44550;43.864;25.986;2024-01-07T15:15:20;99355.66;;;9.61;100.00
58245;BME280;44550;43.864;25.986;2024-01-07T15:19:32;99406.09;;;9.62;100.00
58245;BME280;44550;43.864;25.986;2024-01-07T15:23:46;99408.88;;;9.47;100.00
58245;BME280;44550;43.864;25.986;2024-01-07T15:28:01;99414.34;;;9.21;100.00
58245;BME280;44550;43.864;25.986;2024-01-07T15:32:29;99404.06;;;9.02;100.00
58245;BME280;44550;43.864;25.986;2024-01-07T15:36:46;99423.28;;;8.90;100.00
58245;BME280;44550;43.864;25.986;2024-01-07T15:41:02;99404.31;;;8.72;100.00
58245;BME280;44550;43.864;25.986;2024-01-07T15:45:14;99416.50;;;8.66;100.00
58245;BME280;44550;43.864;25.986;2024-01-07T15:49:22;99398.31;;;8.57;100.00
58245;BME280;44550;43.864;25.986;2024-01-07T15:54:00;99399.25;;;8.47;100.00
58245;BME280;44550;43.864;25.986;2024-01-07T15:58:20;99430.28;;;8.82;100.00
58245;BME280;44550;43.864;25.986;2024-01-07T16:02:33;99432.19;;;8.62;100.00
58245;BME280;44550;43.864;25.986;2024-01-07T16:06:43;99446.13;;;8.55;100.00
58245;BME280;44550;43.864;25.986;2024-01-07T16:10:45;99439.22;;;8.46;100.00
58245;BME280;44550;43.864;25.986;2024-01-07T16:14:49;99449.66;;;8.32;100.00
58245;BME280;44550;43.864;25.986;2024-01-07T16:18:59;99389.09;;;7.92;100.00
58245;BME280;44550;43.864;25.986;2024-01-07T16:23:09;99432.34;;;8.17;100.00
58245;BME280;44550;43.864;25.986;2024-01-07T16:27:15;99454.88;;;8.31;100.00
58245;BME280;44550;43.864;25.986;2024-01-07T16:31:39;99459.25;;;8.29;100.00
58245;BME280;44550;43.864;25.986;2024-01-07T16:36:10;99467.06;;;8.29;100.00
58245;BME280;44550;43.864;25.986;2024-01-07T16:40:40;99469.66;;;8.27;100.00
58245;BME280;44550;43.864;25.986;2024-01-07T16:44:52;99482.69;;;8.26;100.00
58245;BME280;44550;43.864;25.986;2024-01-07T16:49:01;99463.66;;;8.07;100.00
58245;BME280;44550;43.864;25.986;2024-01-07T16:53:20;99458.53;;;7.88;100.00
58245;BME280;44550;43.864;25.986;2024-01-07T16:57:33;99486.28;;;7.89;100.00
58245;BME280;44550;43.864;25.986;2024-01-07T17:01:48;99497.53;;;7.93;100.00
58245;BME280;44550;43.864;25.986;2024-01-07T17:06:55;99499.31;;;7.79;100.00
58245;BME280;44550;43.864;25.986;2024-01-07T17:11:15;99511.44;;;7.78;100.00
58245;BME280;44550;43.864;25.986;2024-01-07T17:16:24;99449.94;;;7.31;100.00
58245;BME280;44550;43.864;25.986;2024-01-07T17:21:24;99506.28;;;7.55;100.00
58245;BME280;44550;43.864;25.986;2024-01-07T17:26:28;99496.75;;;7.43;100.00
58245;BME280;44550;43.864;25.986;2024-01-07T17:31:24;99515.81;;;7.61;100.00
58245;BME280;44550;43.864;25.986;2024-01-07T17:42:46;99518.41;;;7.54;100.00
58245;BME280;44550;43.864;25.986;2024-01-07T17:47:55;99528.84;;;7.45;100.00
58245;BME280;44550;43.864;25.986;2024-01-07T17:53:10;99537.50;;;7.37;100.00
58245;BME280;44550;43.864;25.986;2024-01-07T17:58:25;99538.34;;;7.31;100.00
58245;BME280;44550;43.864;25.986;2024-01-07T18:08:19;99520.13;;;7.11;100.00
58245;BME280;44550;43.864;25.986;2024-01-07T18:13:25;99553.94;;;7.23;100.00
58245;BME280;44550;43.864;25.986;2024-01-07T18:18:11;99554.78;;;7.05;100.00
58245;BME280;44550;43.864;25.986;2024-01-07T19:14:34;99618.63;;;6.44;100.00
58245;BME280;44550;43.864;25.986;2024-01-07T19:47:32;99630.53;;;6.08;100.00
58245;BME280;44550;43.864;25.986;2024-01-07T19:51:48;99667.72;;;6.08;100.00
58245;BME280;44550;43.864;25.986;2024-01-07T19:55:51;99627.66;;;5.79;100.00
58245;BME280;44550;43.864;25.986;2024-01-07T20:00:01;99588.66;;;5.63;100.00
58245;BME280;44550;43.864;25.986;2024-01-07T20:04:23;99600.66;;;5.54;100.00
58245;BME280;44550;43.864;25.986;2024-01-07T20:08:28;99667.50;;;5.84;100.00
58245;BME280;44550;43.864;25.986;2024-01-07T20:17:18;99667.16;;;5.49;100.00
58245;BME280;44550;43.864;25.986;2024-01-07T20:21:27;99689.78;;;5.63;100.00
58245;BME280;44550;43.864;25.986;2024-01-07T20:25:37;99693.09;;;5.49;100.00
58245;BME280;44550;43.864;25.986;2024-01-07T20:29:52;99708.75;;;5.56;100.00
58245;BME280;44550;43.864;25.986;2024-01-07T20:33:59;99700.03;;;5.53;100.00
58245;BME280;44550;43.864;25.986;2024-01-07T20:38:23;99695.56;;;5.39;100.00
58245;BME280;44550;43.864;25.986;2024-01-07T20:42:51;99681.75;;;5.37;100.00
58245;BME280;44550;43.864;25.986;2024-01-07T20:47:40;99701.44;;;5.20;100.00
58245;BME280;44550;43.864;25.986;2024-01-07T20:57:28;99700.25;;;4.97;100.00
58245;BME280;44550;43.864;25.986;2024-01-07T21:01:46;99708.13;;;5.04;100.00
58245;BME280;44550;43.864;25.986;2024-01-07T21:06:02;99721.00;;;5.00;100.00
58245;BME280;44550;43.864;25.986;2024-01-07T21:10:51;99719.16;;;4.89;100.00
58245;BME280;44550;43.864;25.986;2024-01-07T21:15:41;99725.88;;;4.77;100.00
58245;BME280;44550;43.864;25.986;2024-01-07T21:19:43;99702.66;;;4.83;100.00
58245;BME280;44550;43.864;25.986;2024-01-07T21:24:04;99710.34;;;4.75;100.00
58245;BME280;44550;43.864;25.986;2024-01-07T21:28:54;99712.78;;;4.66;100.00
58245;BME280;44550;43.864;25.986;2024-01-07T21:33:07;99711.06;;;4.65;100.00
58245;BME280;44550;43.864;25.986;2024-01-07T21:43:02;99724.81;;;4.61;100.00
58245;BME280;44550;43.864;25.986;2024-01-07T21:47:40;99742.09;;;4.60;100.00
58245;BME280;44550;43.864;25.986;2024-01-07T21:52:06;99748.63;;;4.38;100.00
58245;BME280;44550;43.864;25.986;2024-01-07T21:56:17;99748.69;;;4.43;100.00
58245;BME280;44550;43.864;25.986;2024-01-07T22:00:34;99756.34;;;4.35;100.00
58245;BME280;44550;43.864;25.986;2024-01-07T22:05:08;99766.59;;;4.29;100.00
58245;BME280;44550;43.864;25.986;2024-01-07T22:09:31;99764.06;;;4.32;100.00
58245;BME280;44550;43.864;25.986;2024-01-07T22:13:47;99778.66;;;4.29;100.00
58245;BME280;44550;43.864;25.986;2024-01-07T22:18:47;99782.19;;;4.32;100.00
58245;BME280;44550;43.864;25.986;2024-01-07T22:23:09;99777.69;;;4.22;100.00
58245;BME280;44550;43.864;25.986;2024-01-07T22:27:42;99760.16;;;4.06;100.00
58245;BME280;44550;43.864;25.986;2024-01-07T22:32:11;99797.59;;;4.24;100.00
58245;BME280;44550;43.864;25.986;2024-01-07T22:36:29;99803.69;;;4.28;100.00
58245;BME280;44550;43.864;25.986;2024-01-07T22:41:05;99801.19;;;4.34;100.00
58245;BME280;44550;43.864;25.986;2024-01-07T22:45:37;99703.50;;;3.69;100.00
58245;BME280;44550;43.864;25.986;2024-01-07T22:50:37;99791.53;;;4.24;100.00
58245;BME280;44550;43.864;25.986;2024-01-07T22:55:07;99793.91;;;4.12;100.00
58245;BME280;44550;43.864;25.986;2024-01-07T22:59:24;99798.78;;;3.96;100.00
58245;BME280;44550;43.864;25.986;2024-01-07T23:03:33;99795.28;;;3.91;100.00
58245;BME280;44550;43.864;25.986;2024-01-07T23:07:47;99784.88;;;3.88;100.00
58245;BME280;44550;43.864;25.986;2024-01-07T23:11:54;99795.94;;;3.81;100.00
58245;BME280;44550;43.864;25.986;2024-01-07T23:16:31;99787.28;;;3.79;100.00
58245;BME280;44550;43.864;25.986;2024-01-07T23:20:55;99783.72;;;3.74;100.00
58245;BME280;44550;43.864;25.986;2024-01-07T23:25:11;99804.19;;;3.62;100.00
58245;BME280;44550;43.864;25.986;2024-01-07T23:29:18;99807.78;;;3.70;100.00
58245;BME280;44550;43.864;25.986;2024-01-07T23:33:40;99792.75;;;3.50;100.00
58245;BME280;44550;43.864;25.986;2024-01-07T23:38:19;99829.06;;;3.57;100.00
58245;BME280;44550;43.864;25.986;2024-01-07T23:42:43;99832.56;;;3.59;100.00
58245;BME280;44550;43.864;25.986;2024-01-07T23:51:57;99855.09;;;3.64;100.00
58245;BME280;44550;43.864;25.986;2024-01-07T23:56:17;99861.94;;;3.64;100.00
